Airfield :







YOU CAN JOIN US ON...

 
LOGIN :

Register | Disclaimer

   EN    FR    IT 

 









Legend :    VFR   Marginal VFR   IFR   Intensive IFR   Very Intensive IFR
Visi :
Ceiling :
>= 8 km
>= 3000ft
5 to 8 km
1000 to 3000 ft
1500m to 5 km
500 to 1000 ft
800 to 1500m
200 to 500 ft
< 800m
< 200 ft
Symbols :   Thunderstorms  Fog  Heavy snow  Heavy precipitations  Wind > 20 kt






- Airport Elevation : 71 ft
- IATA code : YBC


CYBC - Baie Comeau

CURRENT METAR :
  • 221700Z AUTO 09014G20KT 9SM CLR 07/05 A3026 RMK SLP248

EXPIRED METARs :
  • 221609Z AUTO 09013G20KT 9SM SCT007 06/04 A3028 RMK SLP255
  • 221600Z AUTO 09014G19KT 9SM BKN007 06/04 A3028 RMK SLP258
  • 221526Z AUTO 09013G19KT 9SM OVC007 06/04 A3029 RMK SLP259
  • 221500Z AUTO 09015G20KT 9SM BKN005 06/04 A3029 RMK SLP260

TAF TAF CYBC
Valid from the 22 at 14:00 until the 23 at 02:00 UTC


221338Z 2214/2302 09012KT 4SM BR BKN003 OVC006
TEMPO 2214/2216 P6SM NSW FEW006 SCT012 OVC240
FM221600 09015KT P6SM SCT012 BKN220
TEMPO 2216/2218 BKN012 BKN220
FM221800 09010G20KT P6SM SCT015 BKN200
FM230100 09012KT P6SM SCT015 OVC180 RMK FCST BASED ON AUTO OBS. NXT FCST BY 222000Z



MET'MAP, your aeronautical weather chart ! - Copyright ORBIFLY December 2007 - Disclaimer

ORBIFLY MET'MAP TEAM :

Programming & Development : Alexandra Zaïnal
Concept & Development : Baudouin d'Aumeries
Co-Development & Prog : Marc-Olivier Méhu
Technical & hardware support : Manuel Goepfert

Contact : metmap@orbifly.com




SOURCES & CREDITS :

   NOAA